createdAt,value
2022-08-07T00:02:40.399Z,18.90
2022-08-07T00:05:03.949Z,18.90
2022-08-07T00:07:40.572Z,18.80
2022-08-07T00:10:29.723Z,18.90
2022-08-07T00:13:02.237Z,18.80
2022-08-07T00:15:38.278Z,18.80
2022-08-07T00:18:18.888Z,18.70
2022-08-07T00:20:52.316Z,18.70
2022-08-07T00:23:22.728Z,18.70
2022-08-07T00:26:00.321Z,18.70
2022-08-07T00:28:34.122Z,18.60
2022-08-07T00:31:12.390Z,18.50
2022-08-07T00:33:47.606Z,18.40
2022-08-07T00:36:17.115Z,18.40
2022-08-07T00:38:47.990Z,18.30
2022-08-07T00:41:28.188Z,18.30
2022-08-07T00:44:01.246Z,18.30
2022-08-07T00:46:33.223Z,18.30
2022-08-07T00:49:03.591Z,18.30
2022-08-07T00:51:56.959Z,18.30
2022-08-07T00:54:22.397Z,18.30
2022-08-07T00:56:51.263Z,18.30
2022-08-07T00:59:35.449Z,18.30
2022-08-07T01:02:05.823Z,18.10
2022-08-07T01:04:43.434Z,18.20
2022-08-07T01:07:13.069Z,18.10
2022-08-07T01:10:05.692Z,18.10
2022-08-07T01:12:32.652Z,18.10
2022-08-07T01:15:03.946Z,18.10
2022-08-07T01:17:33.669Z,18.10
2022-08-07T01:20:08.031Z,18.00
2022-08-07T01:22:46.587Z,18.00
2022-08-07T01:25:53.722Z,17.90
2022-08-07T01:28:11.287Z,17.90
2022-08-07T01:30:41.418Z,17.90
2022-08-07T01:35:54.020Z,17.90
2022-08-07T01:38:26.094Z,17.90
2022-08-07T01:41:00.045Z,18.00
2022-08-07T01:43:38.111Z,17.90
2022-08-07T01:46:08.082Z,18.00
2022-08-07T01:48:41.060Z,17.90
2022-08-07T01:52:02.231Z,17.90
2022-08-07T01:54:11.693Z,17.90
2022-08-07T01:56:53.516Z,17.90
2022-08-07T01:59:31.101Z,17.90
2022-08-07T02:02:07.070Z,17.80
2022-08-07T02:04:55.766Z,17.80
2022-08-07T02:07:44.824Z,17.80
2022-08-07T02:10:25.875Z,17.70
2022-08-07T02:12:57.936Z,17.60
2022-08-07T02:15:29.129Z,17.60
2022-08-07T02:18:00.566Z,17.60
2022-08-07T02:20:30.386Z,17.50
2022-08-07T02:23:07.676Z,17.50
2022-08-07T02:26:31.341Z,17.40
2022-08-07T02:28:31.005Z,17.50
2022-08-07T02:31:06.120Z,17.40
2022-08-07T02:34:03.223Z,17.40
2022-08-07T02:36:34.319Z,17.40
2022-08-07T02:39:16.022Z,17.40
2022-08-07T02:41:54.522Z,17.40
2022-08-07T02:44:26.803Z,17.40
2022-08-07T02:46:58.019Z,17.40
2022-08-07T02:49:28.783Z,17.30
2022-08-07T02:52:21.963Z,17.30
2022-08-07T02:55:04.411Z,17.30
2022-08-07T02:57:38.502Z,17.20
2022-08-07T03:00:10.984Z,17.20
2022-08-07T03:02:54.429Z,17.20
2022-08-07T03:05:24.550Z,17.20
2022-08-07T03:08:08.062Z,17.20
2022-08-07T03:10:46.606Z,17.10
2022-08-07T03:13:19.384Z,17.10
2022-08-07T03:15:58.308Z,17.10
2022-08-07T03:18:34.834Z,17.00
2022-08-07T03:21:08.255Z,17.00
2022-08-07T03:24:20.116Z,16.90
2022-08-07T03:27:09.100Z,17.00
2022-08-07T03:29:44.645Z,17.00
2022-08-07T03:32:22.738Z,16.90
2022-08-07T03:35:16.779Z,16.90
2022-08-07T03:37:46.187Z,16.90
2022-08-07T03:40:22.812Z,16.90
2022-08-07T03:42:52.515Z,16.90
2022-08-07T03:45:30.918Z,16.90
2022-08-07T03:48:01.285Z,16.90
2022-08-07T03:50:30.478Z,16.90
2022-08-07T03:53:01.104Z,16.90
2022-08-07T03:55:52.932Z,16.80
2022-08-07T03:59:05.322Z,16.80
2022-08-07T04:01:15.124Z,16.70
2022-08-07T04:03:53.192Z,16.70
2022-08-07T04:06:36.990Z,16.70
2022-08-07T04:09:15.381Z,16.70
2022-08-07T04:12:26.826Z,16.60
2022-08-07T04:14:43.835Z,16.60
2022-08-07T04:17:20.711Z,16.60
2022-08-07T04:19:52.227Z,16.60
2022-08-07T04:22:29.091Z,16.60
2022-08-07T04:24:58.703Z,16.50
2022-08-07T04:27:35.460Z,16.50
2022-08-07T04:30:10.253Z,16.40
2022-08-07T04:32:44.985Z,16.50
2022-08-07T04:35:16.415Z,16.50
2022-08-07T04:38:01.137Z,16.50
2022-08-07T04:40:34.335Z,16.40
2022-08-07T04:43:05.210Z,16.50
2022-08-07T04:46:01.020Z,16.50
2022-08-07T04:48:44.732Z,16.50
2022-08-07T04:51:27.219Z,16.50
2022-08-07T04:54:06.952Z,16.40
2022-08-07T04:58:14.586Z,16.40
2022-08-07T05:00:11.306Z,16.50
2022-08-07T05:02:33.662Z,16.50
2022-08-07T05:05:11.484Z,16.60
2022-08-07T05:08:01.991Z,16.60
2022-08-07T05:10:35.141Z,16.70
2022-08-07T05:14:45.586Z,16.60
2022-08-07T05:15:59.521Z,16.60
2022-08-07T05:18:44.925Z,16.60
2022-08-07T05:21:18.337Z,16.60
2022-08-07T05:24:12.437Z,16.70
2022-08-07T05:27:05.633Z,16.70
2022-08-07T05:29:51.214Z,16.70
2022-08-07T05:32:25.144Z,16.60
2022-08-07T05:34:57.967Z,16.70
2022-08-07T05:37:31.305Z,16.80
2022-08-07T05:40:18.316Z,16.80
2022-08-07T05:42:56.329Z,16.90
2022-08-07T05:45:46.581Z,16.90
2022-08-07T05:48:16.561Z,17.00
2022-08-07T05:50:45.584Z,17.00
2022-08-07T05:54:13.912Z,17.10
2022-08-07T05:56:12.422Z,17.20
2022-08-07T05:58:41.876Z,17.20
2022-08-07T06:01:22.355Z,17.20
2022-08-07T06:03:58.527Z,17.30
2022-08-07T06:06:32.269Z,17.40
2022-08-07T06:09:04.441Z,17.40
2022-08-07T06:11:34.126Z,17.50
2022-08-07T06:14:11.951Z,17.60
2022-08-07T06:16:45.401Z,17.60
2022-08-07T06:19:52.391Z,17.70
2022-08-07T06:22:23.106Z,17.80
2022-08-07T06:24:58.085Z,17.90
2022-08-07T06:27:59.906Z,17.90
2022-08-07T06:30:32.145Z,17.90
2022-08-07T06:33:15.775Z,18.00
2022-08-07T06:36:06.381Z,18.00
2022-08-07T06:38:35.111Z,18.10
2022-08-07T06:41:13.058Z,18.20
2022-08-07T06:43:46.437Z,18.20
2022-08-07T06:46:31.397Z,18.20
2022-08-07T06:49:04.606Z,18.40
2022-08-07T06:51:36.157Z,18.50
2022-08-07T06:55:31.840Z,18.60
2022-08-07T06:57:10.656Z,18.60
2022-08-07T07:00:14.030Z,18.70
2022-08-07T07:02:53.657Z,18.80
2022-08-07T07:06:03.042Z,18.90
2022-08-07T07:08:18.669Z,19.10
2022-08-07T07:10:57.444Z,19.30
2022-08-07T07:13:41.487Z,19.40
2022-08-07T07:16:27.410Z,19.70
2022-08-07T07:19:54.670Z,19.20
2022-08-07T07:22:12.336Z,21.30
2022-08-07T07:24:58.465Z,24.90
2022-08-07T07:27:56.266Z,27.90
2022-08-07T07:30:37.746Z,29.00
2022-08-07T07:33:11.754Z,30.10
2022-08-07T07:36:04.013Z,30.30
2022-08-07T07:38:34.900Z,30.80
2022-08-07T07:41:08.877Z,31.30
2022-08-07T07:44:13.714Z,31.00
2022-08-07T07:46:54.421Z,30.60
2022-08-07T07:50:32.443Z,30.80
2022-08-07T07:52:18.248Z,30.50
2022-08-07T07:54:51.038Z,30.50
2022-08-07T07:57:29.095Z,31.00
2022-08-07T08:00:29.192Z,31.10
2022-08-07T08:03:06.206Z,30.90
2022-08-07T08:05:53.714Z,31.10
2022-08-07T08:08:34.581Z,30.50
2022-08-07T08:11:16.657Z,30.50
2022-08-07T08:13:57.453Z,30.60
2022-08-07T08:16:35.289Z,31.60
2022-08-07T08:19:17.706Z,31.00
2022-08-07T08:22:17.782Z,31.60
2022-08-07T08:25:18.963Z,31.10
2022-08-07T08:28:01.803Z,31.20
2022-08-07T08:30:37.523Z,30.70
2022-08-07T08:33:16.881Z,30.60
2022-08-07T08:35:51.881Z,30.70
2022-08-07T08:38:29.433Z,30.40
2022-08-07T08:41:07.152Z,29.80
2022-08-07T08:43:50.452Z,29.50
2022-08-07T08:46:34.240Z,29.40
2022-08-07T08:49:14.430Z,29.20
2022-08-07T08:52:14.159Z,29.20
2022-08-07T08:54:50.198Z,29.00
2022-08-07T08:57:27.562Z,28.80
2022-08-07T09:00:03.701Z,28.50
2022-08-07T09:02:42.460Z,28.50
2022-08-07T09:05:36.951Z,28.20
2022-08-07T09:08:24.274Z,28.20
2022-08-07T09:11:08.153Z,28.20
2022-08-07T09:13:42.388Z,28.30
2022-08-07T09:16:22.757Z,28.20
2022-08-07T09:19:51.065Z,28.20
2022-08-07T09:24:27.305Z,28.20
2022-08-07T09:25:17.914Z,28.20
2022-08-07T09:28:00.586Z,28.30
2022-08-07T09:30:44.251Z,28.40
2022-08-07T09:33:56.592Z,28.50
2022-08-07T09:36:35.863Z,28.70
2022-08-07T09:39:53.590Z,28.70
2022-08-07T09:42:41.828Z,28.30
2022-08-07T09:47:27.672Z,28.60
2022-08-07T09:48:19.957Z,28.50
2022-08-07T09:51:01.012Z,28.70
2022-08-07T09:53:41.145Z,28.50
2022-08-07T09:56:49.091Z,28.70
2022-08-07T10:00:01.428Z,28.80
2022-08-07T10:02:56.757Z,28.90
2022-08-07T10:06:00.135Z,28.40
2022-08-07T10:08:56.103Z,28.40
2022-08-07T10:12:01.049Z,28.60
2022-08-07T10:14:43.683Z,28.50
2022-08-07T10:18:02.579Z,28.80
2022-08-07T10:20:39.099Z,29.00
2022-08-07T10:24:06.777Z,29.10
2022-08-07T10:26:53.181Z,29.30
2022-08-07T10:29:45.670Z,29.20
2022-08-07T10:32:52.761Z,29.20
2022-08-07T10:35:53.662Z,29.50
2022-08-07T10:38:35.931Z,29.10
2022-08-07T10:41:51.502Z,29.10
2022-08-07T10:44:33.836Z,29.40
2022-08-07T10:47:26.864Z,29.50
2022-08-07T10:50:15.355Z,29.50
2022-08-07T10:52:54.505Z,29.10
2022-08-07T10:55:38.095Z,29.20
2022-08-07T10:58:33.183Z,29.30
2022-08-07T11:01:23.961Z,29.40
2022-08-07T11:04:23.240Z,29.50
2022-08-07T11:07:03.777Z,29.70
2022-08-07T11:10:09.746Z,29.80
2022-08-07T11:12:44.350Z,29.90
2022-08-07T11:15:31.533Z,30.00
2022-08-07T11:18:05.542Z,30.10
2022-08-07T11:20:50.126Z,30.10
2022-08-07T11:23:38.525Z,30.20
2022-08-07T11:26:38.632Z,30.10
2022-08-07T11:29:41.914Z,29.80
2022-08-07T11:32:26.185Z,29.70
2022-08-07T11:34:58.869Z,29.60
2022-08-07T11:37:58.046Z,29.70
2022-08-07T11:40:49.720Z,29.80
2022-08-07T11:43:41.511Z,29.40
2022-08-07T11:46:31.429Z,29.70
2022-08-07T11:50:25.337Z,29.80
2022-08-07T11:52:39.195Z,29.80
2022-08-07T11:56:08.553Z,29.70
2022-08-07T11:58:33.623Z,29.60
2022-08-07T12:01:20.355Z,29.40
2022-08-07T12:04:19.662Z,29.10
2022-08-07T12:07:02.403Z,28.90
2022-08-07T12:09:46.122Z,28.70
2022-08-07T12:12:21.281Z,28.60
2022-08-07T12:15:05.244Z,28.40
2022-08-07T12:17:58.443Z,28.30
2022-08-07T12:20:34.892Z,28.20
2022-08-07T12:24:05.609Z,28.10
2022-08-07T12:26:54.477Z,28.10
2022-08-07T12:29:37.570Z,27.90
2022-08-07T12:32:18.804Z,27.80
2022-08-07T12:34:55.796Z,27.70
2022-08-07T12:37:28.602Z,27.60
2022-08-07T12:40:46.826Z,27.50
2022-08-07T12:43:12.064Z,27.40
2022-08-07T12:46:12.289Z,27.20
2022-08-07T12:48:58.382Z,27.00
2022-08-07T12:51:51.021Z,26.80
2022-08-07T12:54:41.304Z,26.80
2022-08-07T12:57:10.708Z,26.90
2022-08-07T12:59:54.736Z,26.90
2022-08-07T13:02:41.503Z,26.90
2022-08-07T13:06:04.505Z,26.90
2022-08-07T13:08:42.966Z,26.80
2022-08-07T13:11:27.198Z,26.80
2022-08-07T13:14:05.452Z,26.80
2022-08-07T13:16:42.188Z,26.70
2022-08-07T13:19:34.887Z,26.70
2022-08-07T13:22:27.852Z,26.70
2022-08-07T13:25:02.770Z,26.70
2022-08-07T13:28:12.433Z,26.60
2022-08-07T13:30:41.204Z,26.60
2022-08-07T13:34:30.191Z,26.50
2022-08-07T13:36:18.154Z,26.50
2022-08-07T13:38:57.558Z,26.50
2022-08-07T13:41:35.771Z,26.50
2022-08-07T13:44:12.976Z,26.40
2022-08-07T13:46:49.202Z,26.30
2022-08-07T13:50:33.237Z,26.40
2022-08-07T13:52:33.590Z,26.30
2022-08-07T13:55:08.142Z,26.30
2022-08-07T13:57:53.543Z,26.20
2022-08-07T14:00:39.603Z,26.10
2022-08-07T14:03:30.001Z,26.10
2022-08-07T14:06:14.911Z,26.10
2022-08-07T14:08:48.747Z,26.00
2022-08-07T14:11:26.618Z,26.00
2022-08-07T14:14:18.202Z,26.00
2022-08-07T14:16:49.874Z,26.00
2022-08-07T14:20:42.076Z,26.00
2022-08-07T14:22:34.151Z,26.10
2022-08-07T14:25:14.886Z,26.10
2022-08-07T14:28:10.987Z,26.10
2022-08-07T14:30:40.514Z,26.00
2022-08-07T14:33:10.463Z,26.00
2022-08-07T14:35:47.433Z,25.90
2022-08-07T14:38:26.412Z,25.90
2022-08-07T14:41:04.380Z,25.90
2022-08-07T14:43:57.492Z,25.80
2022-08-07T14:49:56.043Z,25.80
2022-08-07T14:52:10.606Z,25.80
2022-08-07T14:54:42.238Z,25.80
2022-08-07T14:57:19.217Z,25.80
2022-08-07T15:00:09.802Z,25.80
2022-08-07T15:05:30.292Z,25.80
2022-08-07T15:08:00.166Z,25.80
2022-08-07T15:10:30.441Z,25.80
2022-08-07T15:13:06.430Z,25.90
2022-08-07T15:15:52.849Z,25.90
2022-08-07T15:18:40.245Z,25.90
2022-08-07T15:27:30.992Z,25.80
2022-08-07T15:30:23.281Z,25.90
2022-08-07T15:37:03.180Z,26.40
2022-08-07T15:39:28.242Z,25.70
2022-08-07T15:43:01.398Z,25.80
2022-08-07T15:45:55.746Z,25.70
2022-08-07T15:48:32.215Z,25.70
2022-08-07T15:51:16.492Z,25.70
2022-08-07T15:53:52.636Z,25.70
2022-08-07T15:56:33.196Z,25.70
2022-08-07T15:59:16.646Z,25.70
2022-08-07T16:02:01.620Z,25.70
2022-08-07T16:04:35.428Z,25.80
2022-08-07T16:08:28.971Z,25.80
2022-08-07T16:10:11.681Z,25.80
2022-08-07T16:12:58.213Z,25.80
2022-08-07T16:15:57.877Z,25.70
2022-08-07T16:18:50.774Z,25.80
2022-08-07T16:21:53.489Z,25.80
2022-08-07T16:24:34.420Z,25.80
2022-08-07T16:27:18.655Z,25.90
2022-08-07T16:30:31.667Z,25.80
2022-08-07T16:34:01.994Z,25.80
2022-08-07T16:36:20.015Z,25.80
2022-08-07T16:39:04.657Z,25.80
2022-08-07T16:42:02.190Z,25.90
2022-08-07T16:45:14.750Z,25.90
2022-08-07T16:48:15.163Z,25.80
2022-08-07T16:51:21.608Z,25.70
2022-08-07T16:54:33.165Z,25.80
2022-08-07T16:57:12.996Z,25.80
2022-08-07T16:59:52.496Z,25.70
2022-08-07T17:02:59.474Z,25.60
2022-08-07T17:06:29.001Z,25.60
2022-08-07T17:09:08.694Z,25.60
2022-08-07T17:12:05.229Z,25.50
2022-08-07T17:14:42.988Z,25.50
2022-08-07T17:17:44.132Z,25.50
2022-08-07T17:20:20.964Z,25.50
2022-08-07T17:22:58.387Z,25.50
2022-08-07T17:25:47.539Z,25.50
2022-08-07T17:28:31.165Z,25.50
2022-08-07T17:31:16.311Z,25.40
2022-08-07T17:34:32.766Z,25.40
2022-08-07T17:36:57.856Z,25.50
2022-08-07T17:39:58.458Z,25.50
2022-08-07T17:42:59.383Z,25.50
2022-08-07T17:45:36.335Z,25.40
2022-08-07T17:48:12.962Z,25.40
2022-08-07T17:50:54.485Z,25.40
2022-08-07T17:54:00.795Z,25.30
2022-08-07T17:56:29.312Z,25.30
2022-08-07T17:59:06.578Z,25.30
2022-08-07T18:01:48.397Z,25.30
2022-08-07T18:04:36.133Z,25.30
2022-08-07T18:07:20.832Z,25.30
2022-08-07T18:10:05.712Z,25.20
2022-08-07T18:12:52.890Z,25.20
2022-08-07T18:15:32.332Z,25.20
2022-08-07T18:18:46.223Z,25.20
2022-08-07T18:21:38.380Z,25.20
2022-08-07T18:24:06.950Z,25.10
2022-08-07T18:27:17.354Z,25.10
2022-08-07T18:30:32.456Z,25.10
2022-08-07T18:33:39.445Z,25.10
2022-08-07T18:36:33.784Z,25.10
2022-08-07T18:40:06.953Z,25.00
2022-08-07T18:42:13.413Z,24.90
2022-08-07T18:45:39.999Z,24.90
2022-08-07T18:48:01.079Z,24.90
2022-08-07T18:50:58.661Z,24.90
2022-08-07T18:53:40.089Z,24.80
2022-08-07T18:56:17.498Z,24.80
2022-08-07T18:59:01.798Z,24.80
2022-08-07T19:02:20.054Z,24.80
2022-08-07T19:04:54.562Z,24.70
2022-08-07T19:07:34.591Z,24.70
2022-08-07T19:10:10.937Z,24.70
2022-08-07T19:12:58.095Z,24.60
2022-08-07T19:16:05.451Z,24.60
2022-08-07T19:18:44.978Z,24.60
2022-08-07T19:21:47.425Z,24.60
2022-08-07T19:24:30.206Z,24.50
2022-08-07T19:30:54.165Z,24.50
2022-08-07T19:31:05.818Z,24.50
2022-08-07T19:33:12.848Z,24.50
2022-08-07T19:35:43.141Z,24.50
2022-08-07T19:38:16.845Z,24.40
2022-08-07T19:40:51.629Z,24.40
2022-08-07T19:43:48.860Z,24.40
2022-08-07T19:46:18.751Z,24.30
2022-08-07T19:48:53.776Z,24.30
2022-08-07T19:51:52.567Z,24.30
2022-08-07T19:54:35.262Z,24.30
2022-08-07T19:57:56.826Z,24.20
2022-08-07T20:00:00.370Z,24.20
2022-08-07T20:02:35.434Z,24.10
2022-08-07T20:05:10.753Z,24.10
2022-08-07T20:07:48.108Z,24.10
2022-08-07T20:10:37.291Z,24.10
2022-08-07T20:13:22.633Z,24.10
2022-08-07T20:15:53.888Z,24.00
2022-08-07T20:18:32.598Z,24.00
2022-08-07T20:21:20.824Z,24.00
2022-08-07T20:23:54.920Z,23.90
2022-08-07T20:26:38.922Z,23.90
2022-08-07T20:29:48.618Z,23.90
2022-08-07T20:32:11.478Z,23.80
2022-08-07T20:34:54.505Z,23.80
2022-08-07T20:37:24.998Z,23.70
2022-08-07T20:40:04.393Z,23.80
2022-08-07T20:42:35.495Z,23.80
2022-08-07T20:45:32.998Z,23.70
2022-08-07T20:47:58.451Z,23.70
2022-08-07T20:50:31.164Z,23.70
2022-08-07T20:53:00.690Z,23.60
2022-08-07T20:55:32.247Z,23.60
2022-08-07T20:58:11.887Z,23.60
2022-08-07T21:00:56.226Z,23.60
2022-08-07T21:03:26.247Z,23.50
2022-08-07T21:05:58.296Z,23.50
2022-08-07T21:08:38.090Z,23.50
2022-08-07T21:11:14.386Z,23.50
2022-08-07T21:14:16.387Z,23.40
2022-08-07T21:16:56.078Z,23.40
2022-08-07T21:19:32.182Z,23.40
2022-08-07T21:22:19.050Z,23.30
2022-08-07T21:25:04.487Z,23.30
2022-08-07T21:27:47.301Z,23.30
2022-08-07T21:30:18.969Z,23.20
2022-08-07T21:32:57.548Z,23.20
2022-08-07T21:36:05.887Z,23.20
2022-08-07T21:38:28.220Z,23.20
2022-08-07T21:41:09.910Z,23.10
2022-08-07T21:43:56.075Z,23.10
2022-08-07T21:46:33.030Z,23.00
2022-08-07T21:49:14.966Z,23.00
2022-08-07T21:51:58.284Z,23.00
2022-08-07T21:54:39.333Z,22.90
2022-08-07T21:57:31.584Z,22.90
2022-08-07T22:00:19.212Z,22.90
2022-08-07T22:02:58.024Z,22.80
2022-08-07T22:05:45.748Z,22.80
2022-08-07T22:08:20.216Z,22.70
2022-08-07T22:10:53.717Z,22.70
2022-08-07T22:13:51.985Z,22.60
2022-08-07T22:16:38.553Z,22.60
2022-08-07T22:19:13.122Z,22.50
2022-08-07T22:22:04.602Z,22.50
2022-08-07T22:24:38.627Z,22.50
2022-08-07T22:27:17.586Z,22.40
2022-08-07T22:29:52.634Z,22.50
2022-08-07T22:32:28.705Z,22.40
2022-08-07T22:34:58.881Z,22.40
2022-08-07T22:38:04.523Z,22.40
2022-08-07T22:40:31.193Z,22.40
2022-08-07T22:43:04.165Z,22.40
2022-08-07T22:46:04.441Z,22.40
2022-08-07T22:49:01.323Z,22.30
2022-08-07T22:51:55.473Z,22.30
2022-08-07T22:54:58.491Z,22.20
2022-08-07T22:58:06.438Z,22.20
2022-08-07T23:00:42.657Z,22.20
2022-08-07T23:03:58.918Z,22.10
2022-08-07T23:06:51.546Z,22.10
2022-08-07T23:10:00.844Z,22.10
2022-08-07T23:12:53.957Z,22.10
2022-08-07T23:16:06.483Z,22.00
2022-08-07T23:18:33.042Z,22.00
2022-08-07T23:21:21.075Z,21.90
2022-08-07T23:24:20.093Z,21.90
2022-08-07T23:27:13.766Z,21.90
2022-08-07T23:30:38.896Z,21.80
2022-08-07T23:34:36.006Z,21.80
2022-08-07T23:36:27.499Z,21.70
2022-08-07T23:39:04.728Z,21.70
2022-08-07T23:42:04.483Z,21.60
2022-08-07T23:44:58.833Z,21.60
2022-08-07T23:47:48.178Z,21.60
2022-08-07T23:50:42.317Z,21.60
2022-08-07T23:53:22.663Z,21.60
2022-08-07T23:56:20.861Z,21.50
2022-08-07T23:59:00.355Z,21.50
